EDHL/LBC METAR and TAF weather

Enter ICAO airport designator
Station Type Date Time Source
EDHL METAR 2019/04/25 18:50 UTC NOAA

EDHL 251850Z 10005KT CAVOK 19/07 Q1010


Station Type Date Time Source
EDHL Decoded METAR 2019/04/25 18:50 UTC NOAA

Luebeck-Blankensee, Germany (EDHL) 53-49N 010-42E 15M
Apr 25, 2019 - 02:50 PM EDT / 2019.04.25 1850 UTC
Wind: from the E (100 degrees) at 6 MPH (5 KT):0
Visibility: greater than 7 mile(s):0
Temperature: 66 F (19 C)
Dew Point: 44 F (7 C)
Relative Humidity: 45%
Pressure (altimeter): 29.83 in. Hg (1010 hPa)
ob: EDHL 251850Z 10005KT CAVOK 19/07 Q1010
cycle: 19

Station Type Date Time Source
EDHL TAF 2010/02/22 14:20 UTC NOAA

METAR EDHL 221420Z 15004KT 110V180 9999 FEW039 SCT120 05/02 Q0990
RMK X

Example: see airport list